Dalzell, South Carolina
Current Conditions -  °F | °C
As of 6:35 PM on Tuesday 25 Nov 2014 (Local Time) from KSMS Reporting Station
Haze Haze  
Wind Chill: 61°   Ceiling: 300
Heat Index: 61°   Visibility: 2mi
Dew Point: 61°   Wind: 0mph
Humidity: 100%   Direction: NA
Pressure: 30.02"   Gusts: NA
Location:  34.02°N, 80.43°W
Report Text: KSMS 252335Z AUTO 00000KT 2SM BR BKN003 OVC008 16/16 A3002 RMK AO2
Loading
Personal Weather Stations






























Interactive Weather Map New forecast layout! Learn more

10-Day Weather Forecast

Advertisements
Track Severe Weather on mobile